Portola, California
Current Conditions -  °F | °C
As of 12:15 PM on Thursday 30 Oct 2014 (Local Time) from KRTS Reporting Station
Clear Clear  
Wind Chill: 13°   Ceiling: Unl
Heat Index: 13°   Visibility: 10mi
Dew Point: -2°   Wind: 0mph
Humidity: 36%   Direction: NA
Pressure: 30.12"   Gusts: NA
Location:  39.81°N, 120.47°W
Report Text: KRTS 301915Z AUTO 00000KT 10SM CLR 13/M02 A3012 RMK AO2
Loading
Personal Weather Stations






























Interactive Weather Map
Tropical Storm Tracking
New forecast layout! Learn more

10-Day Weather Forecast

Advertisements
Track Severe Weather on mobile